Terminal Aerodrome Forecast
Issued by NWS

Home | Current Version | Previous Version | Text Only | Print | Product List | Glossary On
Versions: 1 2 3 4 5 6 7 8 9 10 11 12
000
FTUS45 KREV 030523
TAFMMH
TAF
KMMH 030523Z 0306/0406 VRB04KT P6SM SKC
     FM031500 13005KT P6SM SKC
     FM032200 26012G22KT P6SM FEW120
     FM040200 30009G18KT P6SM FEW120=

USA.gov is the U.S. government's official web portal to all federal, state and local government web resources and services.